Time;durP1;ratioP1;P1;durP2;ratioP2;P2;SDS_P1;SDS_P2;PMS_P1;PMS_P2;Temp;Humidity;BMP_temperature;BMP_pressure;BME280_temperature;BME280_humidity;BME280_pressure;Samples;Min_cycle;Max_cycle;Signal;HPM_P1;HPM_P2
2022/01/30 00:01:50;;;;;;;22.02;3.88;;;6.00;99.90;;;;;;5056728;28;20143;-75
2022/01/30 00:04:19;;;;;;;24.33;2.97;;;6.00;99.90;;;;;;5047179;28;20061;-75
2022/01/30 00:06:44;;;;;;;27.95;4.32;;;6.00;99.90;;;;;;5040972;28;20128;-74
2022/01/30 00:09:17;;;;;;;28.90;3.88;;;6.00;99.90;;;;;;5040546;28;20485;-75
2022/01/30 00:11:46;;;;;;;20.42;4.03;;;6.10;99.90;;;;;;5047069;28;20040;-75
2022/01/30 00:14:15;;;;;;;25.13;4.15;;;6.10;99.90;;;;;;5062823;28;20090;-75
2022/01/30 00:16:41;;;;;;;26.02;3.95;;;6.10;99.90;;;;;;5052348;28;20059;-75
2022/01/30 00:19:24;;;;;;;17.65;4.20;;;6.10;99.90;;;;;;5064001;28;20109;-75
2022/01/30 00:22:00;;;;;;;31.08;4.95;;;6.10;99.90;;;;;;5038217;28;20076;-75
2022/01/30 00:25:03;;;;;;;19.23;4.50;;;6.10;99.90;;;;;;5042144;28;20135;-75
2022/01/30 00:27:26;;;;;;;25.27;4.57;;;6.20;99.90;;;;;;5043810;28;20492;-75
2022/01/30 00:29:52;;;;;;;27.27;4.50;;;6.30;99.90;;;;;;5044720;28;20160;-75
2022/01/30 00:32:18;;;;;;;34.67;5.15;;;6.30;99.90;;;;;;5047258;28;20556;-74
2022/01/30 00:34:43;;;;;;;28.42;4.43;;;6.40;99.90;;;;;;5048566;28;20049;-75
2022/01/30 00:37:09;;;;;;;18.13;5.18;;;6.40;99.90;;;;;;5044589;28;20466;-74
2022/01/30 00:39:34;;;;;;;17.88;4.30;;;6.40;99.90;;;;;;5044195;28;20089;-76
2022/01/30 00:42:00;;;;;;;20.95;4.32;;;6.40;99.90;;;;;;5045377;28;20476;-77
2022/01/30 00:44:25;;;;;;;22.83;4.72;;;6.40;99.90;;;;;;5039883;28;20088;-76
2022/01/30 00:46:52;;;;;;;26.90;3.92;;;6.40;99.90;;;;;;5048050;28;20041;-76
2022/01/30 00:49:17;;;;;;;24.88;3.38;;;6.30;99.90;;;;;;5040609;28;20041;-77
2022/01/30 00:51:43;;;;;;;16.50;3.13;;;6.20;99.90;;;;;;5038602;28;20385;-77
2022/01/30 00:54:08;;;;;;;20.58;3.15;;;5.90;99.90;;;;;;5038682;28;20387;-76
2022/01/30 00:56:34;;;;;;;19.88;3.35;;;5.70;99.90;;;;;;5054335;28;20066;-76
2022/01/30 00:58:59;;;;;;;25.23;3.50;;;5.70;99.90;;;;;;5057455;28;20136;-76
2022/01/30 01:01:25;;;;;;;22.05;3.28;;;5.70;99.90;;;;;;5046935;28;20057;-76
2022/01/30 01:03:51;;;;;;;25.75;3.67;;;5.60;99.90;;;;;;5036908;28;20048;-76
2022/01/30 01:06:16;;;;;;;25.83;3.78;;;5.60;99.90;;;;;;5036395;28;20079;-77
2022/01/30 01:08:57;;;;;;;21.60;3.17;;;5.60;99.90;;;;;;5056466;28;20048;-76
2022/01/30 01:14:08;;;;;;;21.08;3.80;;;5.70;99.90;;;;;;5047537;28;20044;-76
2022/01/30 01:24:46;;;;;;;16.50;3.15;;;5.70;99.90;;;;;;5035830;28;20080;-76
2022/01/30 01:27:12;;;;;;;23.05;3.10;;;5.70;99.90;;;;;;5043046;28;20467;-76
2022/01/30 01:29:38;;;;;;;21.30;3.92;;;5.70;99.90;;;;;;5037557;28;20064;-75
2022/01/30 01:32:04;;;;;;;22.98;4.03;;;5.70;99.90;;;;;;5037643;28;20698;-75
2022/01/30 01:34:36;;;;;;;25.70;4.68;;;5.80;99.90;;;;;;5043905;28;20125;-76
2022/01/30 01:37:02;;;;;;;18.30;3.80;;;5.70;99.90;;;;;;5039809;28;20057;-74
2022/01/30 01:39:28;;;;;;;29.63;4.47;;;5.80;99.90;;;;;;5036763;28;20068;-75
2022/01/30 01:41:54;;;;;;;22.33;3.80;;;5.90;99.90;;;;;;5037832;28;20480;-75
2022/01/30 01:44:31;;;;;;;25.45;5.38;;;5.90;99.90;;;;;;5034425;28;20045;-74
2022/01/30 01:46:57;;;;;;;22.83;4.97;;;5.90;99.90;;;;;;5032224;28;20053;-75
2022/01/30 01:49:28;;;;;;;24.83;4.45;;;5.90;99.90;;;;;;5045459;28;20033;-75
2022/01/30 01:54:39;;;;;;;26.35;4.43;;;5.90;99.90;;;;;;5040932;28;20072;-75
2022/01/30 01:57:05;;;;;;;26.20;4.32;;;5.90;99.90;;;;;;5035295;28;20033;-75
2022/01/30 01:59:31;;;;;;;24.10;3.55;;;5.80;99.90;;;;;;5044429;28;20408;-76
2022/01/30 02:01:59;;;;;;;27.30;5.18;;;5.80;99.90;;;;;;5031760;28;20052;-75
2022/01/30 02:04:25;;;;;;;21.27;4.47;;;5.70;99.90;;;;;;5035174;28;20061;-75
2022/01/30 02:07:06;;;;;;;23.10;3.42;;;5.70;99.90;;;;;;5041243;28;20503;-75
2022/01/30 02:09:33;;;;;;;37.17;5.25;;;5.70;99.90;;;;;;5059809;28;20053;-76
2022/01/30 02:11:59;;;;;;;30.60;4.95;;;5.60;99.90;;;;;;5036743;28;20112;-75
2022/01/30 02:14:50;;;;;;;25.13;4.70;;;5.70;99.90;;;;;;5032876;28;20358;-76
2022/01/30 02:26:01;;;;;;;37.92;5.10;;;5.80;99.90;;;;;;5035352;28;20053;-75
2022/01/30 02:28:19;;;;;;;24.30;3.83;;;5.80;99.90;;;;;;5038625;28;20088;-75
2022/01/30 02:30:53;;;;;;;25.52;4.88;;;5.80;99.90;;;;;;5042258;28;20041;-78
2022/01/30 02:33:21;;;;;;;32.80;5.22;;;5.80;99.90;;;;;;5040676;28;20045;-76
2022/01/30 02:35:47;;;;;;;27.23;4.05;;;5.80;99.90;;;;;;5042016;28;20045;-76
2022/01/30 02:38:15;;;;;;;24.05;4.32;;;5.80;99.90;;;;;;5034691;28;20042;-76
2022/01/30 02:40:43;;;;;;;23.00;4.38;;;5.80;99.90;;;;;;5034903;28;20120;-76
2022/01/30 02:43:09;;;;;;;30.38;5.18;;;5.70;99.90;;;;;;5035241;28;20103;-75
2022/01/30 02:45:38;;;;;;;24.33;4.03;;;5.70;99.90;;;;;;5042094;28;20041;-75
2022/01/30 02:50:38;;;;;;;25.38;4.63;;;5.70;99.90;;;;;;5039467;28;20085;-76
2022/01/30 02:53:08;;;;;;;28.27;4.82;;;5.70;99.90;;;;;;5036031;28;20099;-75
2022/01/30 02:55:34;;;;;;;22.75;3.95;;;5.70;99.90;;;;;;5042226;28;20056;-76
2022/01/30 02:58:00;;;;;;;28.65;5.38;;;5.70;99.90;;;;;;5046670;28;20049;-76
2022/01/30 03:00:25;;;;;;;23.00;4.75;;;5.80;99.90;;;;;;5035111;28;20045;-76
2022/01/30 03:02:51;;;;;;;25.25;3.85;;;6.20;99.90;;;;;;5037714;28;20140;-76
2022/01/30 03:05:17;;;;;;;32.78;4.97;;;5.80;99.90;;;;;;5042577;28;20052;-75
2022/01/30 03:07:42;;;;;;;32.13;5.18;;;5.80;99.90;;;;;;5041196;28;20048;-75
2022/01/30 03:10:10;;;;;;;32.80;6.10;;;5.80;99.90;;;;;;5044352;28;20089;-76
2022/01/30 03:12:36;;;;;;;34.22;5.03;;;5.80;99.90;;;;;;5035952;28;20041;-75
2022/01/30 03:15:03;;;;;;;23.60;5.95;;;5.70;99.90;;;;;;5036850;28;20057;-75
2022/01/30 03:17:29;;;;;;;29.80;6.32;;;5.80;99.90;;;;;;5038989;28;20049;-75
2022/01/30 03:19:54;;;;;;;30.08;4.65;;;5.80;99.90;;;;;;5031576;28;20491;-74
2022/01/30 03:22:20;;;;;;;29.73;6.55;;;5.80;99.90;;;;;;5034677;28;20049;-75
2022/01/30 03:24:46;;;;;;;33.70;6.25;;;5.80;99.90;;;;;;5037452;28;20049;-75
2022/01/30 03:27:13;;;;;;;35.60;5.65;;;5.80;99.90;;;;;;5033450;28;20055;-76
2022/01/30 03:29:40;;;;;;;29.52;5.40;;;5.90;99.90;;;;;;5037875;28;20056;-76
2022/01/30 03:32:06;;;;;;;32.00;5.15;;;5.90;99.90;;;;;;5043406;28;20092;-75
2022/01/30 03:34:32;;;;;;;26.52;4.40;;;5.90;99.90;;;;;;5038921;28;20056;-76
2022/01/30 03:36:58;;;;;;;25.08;4.50;;;5.90;99.90;;;;;;5044977;28;20029;-75
2022/01/30 03:39:23;;;;;;;35.50;6.05;;;5.90;99.90;;;;;;5041509;28;20040;-75
2022/01/30 03:41:49;;;;;;;29.88;5.50;;;6.00;99.90;;;;;;5036597;28;20045;-76
2022/01/30 03:44:16;;;;;;;34.45;5.60;;;6.00;99.90;;;;;;5035633;28;20116;-76
2022/01/30 03:46:42;;;;;;;28.73;5.60;;;6.00;99.90;;;;;;5044388;28;20053;-76
2022/01/30 03:49:07;;;;;;;37.47;5.20;;;6.00;99.90;;;;;;5041930;28;20095;-77
2022/01/30 03:51:33;;;;;;;23.98;4.97;;;6.00;99.90;;;;;;5035682;28;20098;-76
2022/01/30 03:53:58;;;;;;;32.38;4.97;;;6.10;99.90;;;;;;5045044;28;20048;-76
2022/01/30 03:56:24;;;;;;;40.03;5.78;;;6.10;99.90;;;;;;5047446;28;20080;-76
2022/01/30 03:58:49;;;;;;;27.42;4.72;;;6.10;99.90;;;;;;5036966;28;20044;-76
2022/01/30 04:01:15;;;;;;;24.90;4.95;;;6.10;99.90;;;;;;5037147;28;20056;-76
2022/01/30 04:03:41;;;;;;;28.48;5.05;;;6.10;99.90;;;;;;5036885;28;20060;-76
2022/01/30 04:06:09;;;;;;;34.65;6.13;;;6.10;99.90;;;;;;5034258;28;20051;-75
2022/01/30 04:08:35;;;;;;;31.08;6.05;;;6.10;99.90;;;;;;5045164;28;20049;-76
2022/01/30 04:11:01;;;;;;;37.63;5.88;;;6.10;99.90;;;;;;5036677;28;20052;-75
2022/01/30 04:13:26;;;;;;;29.42;5.40;;;6.10;99.90;;;;;;5035685;28;20463;-75
2022/01/30 04:15:52;;;;;;;37.38;5.40;;;6.10;99.90;;;;;;5040827;28;20116;-76
2022/01/30 04:18:18;;;;;;;31.95;5.68;;;6.00;99.90;;;;;;5045069;28;20037;-74
2022/01/30 04:20:44;;;;;;;28.90;6.45;;;5.90;99.90;;;;;;5035146;28;20497;-74
2022/01/30 04:23:09;;;;;;;32.53;6.40;;;5.80;99.90;;;;;;5037076;28;20045;-74
2022/01/30 04:25:35;;;;;;;28.60;5.97;;;5.70;99.90;;;;;;5042378;28;20041;-74
2022/01/30 04:28:01;;;;;;;35.67;6.95;;;5.70;99.90;;;;;;5039219;28;20062;-75
2022/01/30 04:30:27;;;;;;;49.00;8.70;;;5.70;99.90;;;;;;5048901;28;20044;-74
2022/01/30 04:32:53;;;;;;;40.92;6.80;;;5.60;99.90;;;;;;5063766;28;20049;-75
2022/01/30 04:35:26;;;;;;;34.35;7.05;;;5.60;99.90;;;;;;5043326;28;20041;-75
2022/01/30 04:38:03;;;;;;;34.88;6.75;;;5.60;99.90;;;;;;5059329;28;20044;-74
2022/01/30 04:56:57;;;;;;;41.15;7.22;;;5.80;99.90;;;;;;5043017;28;20053;-74
2022/01/30 05:02:08;;;;;;;31.83;5.50;;;5.80;99.90;;;;;;5035313;28;20045;-74
2022/01/30 05:04:49;;;;;;;37.50;6.55;;;5.80;99.90;;;;;;5036363;28;20056;-74
2022/01/30 05:09:42;;;;;;;46.90;7.32;;;5.80;99.90;;;;;;5044427;28;20105;-74
2022/01/30 05:12:09;;;;;;;38.95;6.65;;;5.90;99.90;;;;;;5036062;28;21384;-74
2022/01/30 05:14:36;;;;;;;32.33;6.38;;;5.90;99.90;;;;;;5056763;28;20484;-74
2022/01/30 05:17:04;;;;;;;38.38;7.13;;;5.80;99.90;;;;;;5063189;28;20055;-74
2022/01/30 05:19:31;;;;;;;46.28;7.53;;;5.90;99.90;;;;;;5038038;28;20052;-73
2022/01/30 05:21:57;;;;;;;46.42;8.68;;;5.90;99.90;;;;;;5059181;28;20136;-73
2022/01/30 05:24:23;;;;;;;28.02;7.03;;;5.90;99.90;;;;;;5040156;28;20082;-73
2022/01/30 05:26:49;;;;;;;42.45;8.73;;;5.90;99.90;;;;;;5041199;28;20057;-75
2022/01/30 05:29:15;;;;;;;49.30;8.30;;;5.80;99.90;;;;;;5041344;28;20083;-74
2022/01/30 05:31:42;;;;;;;43.63;6.97;;;5.80;99.90;;;;;;5057081;28;20041;-73
2022/01/30 05:34:08;;;;;;;37.35;7.43;;;5.80;99.90;;;;;;5038245;28;20048;-74
2022/01/30 05:36:37;;;;;;;45.28;8.38;;;5.80;99.90;;;;;;5061342;28;20055;-74
2022/01/30 05:39:04;;;;;;;34.75;6.43;;;5.70;99.90;;;;;;5041020;28;20044;-74
2022/01/30 05:41:30;;;;;;;37.67;6.25;;;5.70;99.90;;;;;;5045562;28;20104;-74
2022/01/30 05:43:59;;;;;;;34.58;6.22;;;5.60;99.90;;;;;;5039836;28;20097;-74
2022/01/30 05:46:32;;;;;;;35.40;7.03;;;5.60;99.90;;;;;;5040191;28;20041;-74
2022/01/30 05:48:58;;;;;;;46.33;6.03;;;5.60;99.90;;;;;;5041791;28;20059;-74
2022/01/30 05:51:23;;;;;;;40.05;6.97;;;5.50;99.90;;;;;;5046549;28;20438;-74
2022/01/30 05:53:49;;;;;;;40.55;7.70;;;5.60;99.90;;;;;;5041451;28;20544;-74
2022/01/30 05:56:15;;;;;;;42.72;6.50;;;5.60;99.90;;;;;;5039091;28;20162;-74
2022/01/30 05:58:40;;;;;;;39.00;8.00;;;5.60;99.90;;;;;;5056763;28;20400;-74
2022/01/30 06:01:06;;;;;;;47.60;8.13;;;5.60;99.90;;;;;;5057413;28;20044;-74
2022/01/30 06:03:31;;;;;;;44.13;7.57;;;5.70;99.90;;;;;;5045447;28;20036;-74
2022/01/30 06:05:57;;;;;;;32.55;8.07;;;5.70;99.90;;;;;;5042845;28;20052;-74
2022/01/30 06:11:08;;;;;;;39.38;6.82;;;5.70;99.90;;;;;;5042728;28;20053;-75
2022/01/30 06:13:34;;;;;;;33.28;5.75;;;5.60;99.90;;;;;;5042811;28;20044;-75
2022/01/30 06:16:01;;;;;;;39.00;7.22;;;5.50;99.90;;;;;;5062077;28;20506;-75
2022/01/30 06:18:27;;;;;;;39.38;6.00;;;5.40;99.90;;;;;;5043437;28;20094;-75
2022/01/30 06:20:53;;;;;;;39.90;7.45;;;5.40;99.90;;;;;;5035899;28;20067;-75
2022/01/30 06:23:22;;;;;;;37.30;7.30;;;5.40;99.90;;;;;;5042128;28;20074;-75
2022/01/30 06:25:48;;;;;;;40.88;6.35;;;5.30;99.90;;;;;;5039944;28;20052;-75
2022/01/30 06:28:14;;;;;;;39.00;6.30;;;5.30;99.90;;;;;;5037407;28;20141;-75
2022/01/30 06:30:40;;;;;;;36.63;6.43;;;5.30;99.90;;;;;;5039064;28;20139;-75
2022/01/30 06:33:06;;;;;;;31.13;5.90;;;5.40;99.90;;;;;;5044659;28;20132;-75
2022/01/30 06:35:31;;;;;;;37.78;7.30;;;5.40;99.90;;;;;;5039812;28;20052;-74
2022/01/30 06:37:57;;;;;;;50.30;8.20;;;5.40;99.90;;;;;;5056450;28;20478;-75
2022/01/30 06:40:22;;;;;;;43.95;6.25;;;5.60;99.90;;;;;;5042834;28;20547;-75
2022/01/30 06:42:48;;;;;;;42.95;7.90;;;5.50;99.90;;;;;;5034752;28;20484;-74
2022/01/30 06:45:13;;;;;;;38.42;7.18;;;5.50;99.90;;;;;;5043619;28;20041;-76
2022/01/30 06:47:42;;;;;;;39.55;6.65;;;5.50;99.90;;;;;;5040387;28;20052;-76
2022/01/30 06:50:09;;;;;;;40.25;6.57;;;5.60;99.90;;;;;;5063238;28;20033;-76
2022/01/30 06:52:35;;;;;;;41.88;6.60;;;5.60;99.90;;;;;;5056032;28;20048;-75
2022/01/30 06:55:01;;;;;;;28.83;6.82;;;5.60;99.90;;;;;;5036202;28;20045;-75
2022/01/30 06:57:27;;;;;;;34.85;6.78;;;5.60;99.90;;;;;;5038272;28;20502;-75
2022/01/30 06:59:52;;;;;;;34.58;7.07;;;5.70;99.90;;;;;;5037743;28;20045;-75
2022/01/30 07:02:18;;;;;;;40.70;7.28;;;5.70;99.90;;;;;;5044118;28;20037;-74
2022/01/30 07:04:43;;;;;;;35.47;6.43;;;5.70;99.90;;;;;;5038129;28;20056;-75
2022/01/30 07:07:09;;;;;;;44.40;6.80;;;5.80;99.90;;;;;;5044271;28;20813;-75
2022/01/30 07:09:34;;;;;;;35.22;6.40;;;5.80;99.90;;;;;;5035295;28;20174;-75
2022/01/30 07:12:00;;;;;;;38.90;6.32;;;5.80;99.90;;;;;;5043165;28;20373;-75
2022/01/30 07:14:26;;;;;;;36.83;7.65;;;5.80;99.90;;;;;;5052194;28;20403;-75
2022/01/30 07:16:51;;;;;;;39.03;7.07;;;5.80;99.90;;;;;;5044572;28;20052;-75
2022/01/30 07:19:17;;;;;;;41.55;6.50;;;5.80;99.90;;;;;;5051979;28;20037;-75
2022/01/30 07:21:42;;;;;;;33.55;6.80;;;5.80;99.90;;;;;;5038390;28;20041;-74
2022/01/30 07:24:08;;;;;;;42.60;7.10;;;5.80;99.90;;;;;;5039535;28;20048;-77
2022/01/30 07:26:34;;;;;;;39.42;7.35;;;5.70;99.90;;;;;;5045301;28;20507;-73
2022/01/30 07:29:00;;;;;;;35.30;7.15;;;5.80;99.90;;;;;;5044125;28;20095;-73
2022/01/30 07:31:26;;;;;;;38.60;6.82;;;5.70;99.90;;;;;;5035163;28;20404;-73
2022/01/30 07:33:51;;;;;;;40.72;6.85;;;5.70;99.90;;;;;;5044497;28;20053;-73
2022/01/30 07:36:17;;;;;;;44.65;6.60;;;5.70;99.90;;;;;;5038636;28;20044;-73
2022/01/30 07:38:43;;;;;;;37.90;6.65;;;5.70;99.90;;;;;;5037628;28;20045;-73
2022/01/30 07:41:09;;;;;;;33.80;6.80;;;5.70;99.90;;;;;;5036430;28;20065;-73
2022/01/30 07:43:35;;;;;;;35.63;7.03;;;5.70;99.90;;;;;;5039197;28;20076;-73
2022/01/30 07:46:03;;;;;;;33.20;6.00;;;5.70;99.90;;;;;;5038066;28;20049;-72
2022/01/30 07:48:29;;;;;;;41.60;8.00;;;5.80;99.90;;;;;;5040352;28;20056;-73
2022/01/30 07:50:55;;;;;;;29.23;5.28;;;5.80;99.90;;;;;;5037709;28;20037;-72
2022/01/30 07:53:20;;;;;;;25.80;4.53;;;5.80;99.90;;;;;;5038066;28;20172;-72
2022/01/30 07:55:46;;;;;;;35.15;5.00;;;5.80;99.90;;;;;;5039444;28;20156;-73
2022/01/30 07:58:12;;;;;;;30.92;5.40;;;5.80;99.90;;;;;;5042391;28;20523;-73
2022/01/30 08:00:39;;;;;;;28.13;6.78;;;5.80;99.90;;;;;;5039405;28;20072;-73
2022/01/30 08:03:04;;;;;;;30.58;4.93;;;5.80;99.90;;;;;;5038479;28;20058;-72
2022/01/30 08:05:30;;;;;;;26.35;5.55;;;5.80;99.90;;;;;;5043285;28;20096;-72
2022/01/30 08:07:56;;;;;;;30.45;4.63;;;5.80;99.90;;;;;;5040686;28;20504;-73
2022/01/30 08:10:21;;;;;;;29.35;4.70;;;5.70;99.90;;;;;;5039187;28;20049;-74
2022/01/30 08:12:47;;;;;;;26.70;5.75;;;5.30;99.90;;;;;;5043557;28;20063;-73
2022/01/30 08:15:13;;;;;;;35.45;6.03;;;5.80;99.90;;;;;;5042234;28;20048;-74
2022/01/30 08:17:39;;;;;;;29.30;5.57;;;5.80;99.90;;;;;;5040580;28;20044;-73
2022/01/30 08:20:06;;;;;;;30.02;5.82;;;5.80;99.90;;;;;;5038364;28;20442;-73
2022/01/30 08:22:33;;;;;;;31.70;5.53;;;5.80;99.90;;;;;;5044400;28;20103;-75
2022/01/30 08:24:59;;;;;;;31.75;5.35;;;5.80;99.90;;;;;;5036817;28;20048;-76
2022/01/30 08:27:24;;;;;;;34.00;6.22;;;5.80;99.90;;;;;;5042667;28;20071;-80
2022/01/30 08:29:50;;;;;;;34.22;5.75;;;5.80;99.90;;;;;;5034416;28;20084;-82
2022/01/30 08:32:15;;;;;;;36.78;6.18;;;5.80;99.90;;;;;;5038823;28;20030;-81
2022/01/30 08:34:41;;;;;;;31.85;6.25;;;5.80;99.90;;;;;;5041163;28;20049;-81
2022/01/30 08:37:07;;;;;;;35.15;5.78;;;5.80;99.90;;;;;;5039955;28;20568;-81
2022/01/30 08:39:33;;;;;;;30.63;6.30;;;5.80;99.90;;;;;;5043602;28;20045;-81
2022/01/30 08:42:00;;;;;;;41.80;6.22;;;5.80;99.90;;;;;;5039757;28;20041;-81
2022/01/30 08:44:26;;;;;;;31.73;6.18;;;5.80;99.90;;;;;;5039898;28;20562;-80
2022/01/30 08:46:51;;;;;;;41.08;7.53;;;5.80;99.90;;;;;;5041969;28;20082;-80
2022/01/30 08:49:17;;;;;;;37.20;6.00;;;5.70;99.90;;;;;;5032588;28;20400;-80
2022/01/30 08:51:42;;;;;;;35.53;5.88;;;5.70;99.90;;;;;;5036996;28;20049;-81
2022/01/30 08:54:08;;;;;;;30.63;6.55;;;5.70;99.90;;;;;;5045758;28;20127;-81
2022/01/30 08:56:33;;;;;;;27.38;6.05;;;5.70;99.90;;;;;;5034516;28;20045;-81
2022/01/30 08:58:59;;;;;;;28.70;5.85;;;5.80;99.90;;;;;;5042827;28;20053;-81
2022/01/30 09:01:24;;;;;;;37.33;7.10;;;6.00;99.90;;;;;;5037300;28;20041;-80
2022/01/30 09:03:50;;;;;;;36.15;7.38;;;6.00;99.90;;;;;;5040293;28;20556;-78
2022/01/30 09:06:17;;;;;;;37.47;6.45;;;6.00;99.90;;;;;;5033756;28;20060;-77
2022/01/30 09:08:42;;;;;;;29.02;5.80;;;6.10;99.90;;;;;;5034298;28;20060;-79
2022/01/30 09:11:08;;;;;;;32.80;6.00;;;6.00;99.90;;;;;;5035225;28;20050;-79
2022/01/30 09:13:34;;;;;;;35.05;6.68;;;6.00;99.90;;;;;;5023773;28;20064;-77
2022/01/30 09:16:01;;;;;;;33.15;6.00;;;5.90;99.90;;;;;;5023238;28;20053;-77
2022/01/30 09:18:29;;;;;;;28.80;5.40;;;5.90;99.90;;;;;;5030396;28;20055;-81
2022/01/30 09:20:55;;;;;;;30.25;5.97;;;5.80;99.90;;;;;;5032065;28;20095;-81
2022/01/30 09:23:21;;;;;;;42.33;6.68;;;5.80;99.90;;;;;;5031334;28;20053;-81
2022/01/30 09:25:47;;;;;;;38.63;6.18;;;5.80;99.90;;;;;;5031588;28;20049;-80
2022/01/30 09:28:13;;;;;;;39.13;7.13;;;5.90;99.90;;;;;;5034070;28;20045;-81
2022/01/30 09:30:39;;;;;;;33.20;6.53;;;6.00;99.90;;;;;;5044114;28;20036;-81
2022/01/30 09:33:04;;;;;;;35.85;6.20;;;6.10;99.90;;;;;;5023018;28;20053;-80
2022/01/30 09:35:30;;;;;;;27.73;5.95;;;6.00;99.90;;;;;;5026727;28;20504;-80
2022/01/30 09:37:58;;;;;;;39.35;6.38;;;6.00;99.90;;;;;;5018149;28;20041;-80
2022/01/30 09:40:23;;;;;;;29.45;6.25;;;6.00;99.90;;;;;;5017558;28;20045;-80
2022/01/30 09:42:50;;;;;;;33.72;6.13;;;6.10;99.90;;;;;;5022464;28;20048;-80
2022/01/30 09:45:20;;;;;;;25.20;5.10;;;6.10;99.90;;;;;;5020224;28;20077;-81
2022/01/30 09:47:46;;;;;;;39.58;5.70;;;6.10;99.90;;;;;;5039509;28;20059;-80
2022/01/30 09:50:12;;;;;;;32.53;6.97;;;6.10;99.90;;;;;;5037036;28;20049;-80
2022/01/30 09:52:38;;;;;;;31.83;6.20;;;6.20;99.90;;;;;;5023079;28;20043;-80
2022/01/30 09:55:08;;;;;;;31.65;5.55;;;6.20;99.90;;;;;;5016978;28;20073;-81
2022/01/30 09:57:34;;;;;;;26.92;6.10;;;6.30;99.90;;;;;;5016728;28;20603;-80
2022/01/30 10:00:00;;;;;;;29.63;5.38;;;6.40;99.90;;;;;;5038151;28;20044;-81
2022/01/30 10:02:26;;;;;;;31.20;5.30;;;6.50;99.90;;;;;;5034988;28;20037;-80
2022/01/30 10:04:52;;;;;;;34.85;5.35;;;6.40;99.90;;;;;;5022676;28;20092;-81
2022/01/30 10:07:20;;;;;;;32.58;5.53;;;6.40;99.90;;;;;;5014560;28;20535;-81
2022/01/30 10:09:49;;;;;;;25.90;4.90;;;6.40;99.90;;;;;;5014624;28;20104;-81
2022/01/30 10:12:19;;;;;;;32.75;6.90;;;6.50;99.90;;;;;;5038598;28;20037;-81
2022/01/30 10:15:02;;;;;;;28.70;5.68;;;6.70;99.90;;;;;;5012221;28;20613;-81
2022/01/30 10:17:46;;;;;;;35.78;6.20;;;6.70;99.90;;;;;;5015386;28;20500;-81
2022/01/30 10:20:15;;;;;;;37.10;5.47;;;6.70;99.90;;;;;;5029000;28;20160;-81
2022/01/30 10:22:52;;;;;;;34.50;5.28;;;6.70;99.90;;;;;;5034466;28;20075;-82
2022/01/30 10:25:20;;;;;;;31.08;5.75;;;6.70;99.90;;;;;;5018525;28;20041;-81
2022/01/30 10:27:46;;;;;;;41.90;7.38;;;6.70;99.90;;;;;;5025372;28;20056;-77
2022/01/30 10:30:12;;;;;;;28.98;5.97;;;6.70;99.90;;;;;;5036994;28;20045;-76
2022/01/30 10:32:37;;;;;;;35.38;5.15;;;6.70;99.90;;;;;;5035875;28;20060;-78
2022/01/30 10:35:06;;;;;;;36.38;5.95;;;6.80;99.90;;;;;;5039511;28;20484;-77
2022/01/30 10:37:33;;;;;;;29.50;5.97;;;6.80;99.90;;;;;;5038339;28;20088;-77
2022/01/30 10:40:16;;;;;;;38.88;6.47;;;6.90;99.90;;;;;;5034186;28;20133;-77
2022/01/30 10:42:46;;;;;;;34.10;5.97;;;6.90;99.90;;;;;;5048256;28;20056;-78
2022/01/30 10:45:21;;;;;;;34.67;5.65;;;6.90;99.90;;;;;;5049735;28;20435;-88
2022/01/30 10:47:47;;;;;;;37.38;6.88;;;6.90;99.90;;;;;;5047352;28;20480;-77
2022/01/30 10:50:15;;;;;;;32.17;7.35;;;6.80;99.90;;;;;;5035050;28;20049;-74
2022/01/30 10:52:51;;;;;;;36.20;6.60;;;6.70;99.90;;;;;;5035830;28;20045;-76
2022/01/30 10:55:33;;;;;;;37.53;6.15;;;6.70;99.90;;;;;;5037343;28;20132;-74
2022/01/30 10:58:01;;;;;;;35.65;6.60;;;6.70;99.90;;;;;;5041920;28;20059;-75
2022/01/30 11:00:47;;;;;;;25.05;5.47;;;6.60;99.90;;;;;;5043421;28;20045;-73
2022/01/30 11:03:39;;;;;;;38.00;6.68;;;6.60;99.90;;;;;;5037145;28;20069;-75
2022/01/30 11:06:10;;;;;;;34.45;5.72;;;6.70;99.90;;;;;;5043328;28;20553;-75
2022/01/30 11:08:39;;;;;;;41.88;7.28;;;6.80;99.90;;;;;;5037498;28;20095;-75
2022/01/30 11:11:33;;;;;;;32.00;7.10;;;6.90;99.90;;;;;;5041311;28;20421;-75
2022/01/30 11:14:03;;;;;;;29.88;5.93;;;7.00;99.90;;;;;;5040238;28;20369;-75
2022/01/30 11:19:16;;;;;;;27.95;5.70;;;7.10;99.90;;;;;;5032250;28;20637;-76
2022/01/30 11:21:44;;;;;;;35.90;6.07;;;7.10;99.90;;;;;;5037025;28;20049;-76
2022/01/30 11:24:12;;;;;;;42.08;6.20;;;7.20;99.90;;;;;;5041658;28;20037;-76
2022/01/30 11:26:39;;;;;;;29.13;5.10;;;7.10;99.90;;;;;;5038957;28;20553;-75
2022/01/30 11:29:11;;;;;;;26.60;6.35;;;7.20;99.90;;;;;;5040062;28;20061;-76
2022/01/30 11:31:37;;;;;;;39.72;6.00;;;7.10;99.90;;;;;;5038489;28;20451;-75
2022/01/30 11:34:04;;;;;;;31.77;5.35;;;7.10;99.90;;;;;;5038918;28;20111;-75
2022/01/30 11:36:31;;;;;;;42.22;6.10;;;7.10;99.90;;;;;;5044025;28;20369;-75
2022/01/30 11:38:57;;;;;;;33.05;6.57;;;7.20;99.90;;;;;;5045456;28;20075;-75
2022/01/30 11:41:23;;;;;;;32.53;6.47;;;7.20;99.90;;;;;;5037543;28;20044;-76
2022/01/30 11:44:19;;;;;;;29.65;5.95;;;7.20;99.90;;;;;;5041279;28;20037;-75
2022/01/30 11:46:51;;;;;;;33.83;5.90;;;7.10;99.90;;;;;;5037692;28;20393;-76
2022/01/30 11:49:17;;;;;;;26.73;6.07;;;7.10;99.90;;;;;;5036262;28;20076;-76
2022/01/30 11:51:54;;;;;;;33.45;5.57;;;7.10;99.90;;;;;;5042211;28;20041;-76
2022/01/30 11:54:37;;;;;;;35.05;5.85;;;7.20;99.90;;;;;;5037638;28;20115;-76
2022/01/30 11:57:04;;;;;;;36.75;7.57;;;7.30;99.90;;;;;;5037577;28;20116;-76
2022/01/30 11:59:38;;;;;;;32.53;6.20;;;7.40;99.90;;;;;;5040225;28;20508;-75
2022/01/30 12:02:28;;;;;;;35.72;6.25;;;7.30;99.90;;;;;;5033729;28;20045;-77
2022/01/30 12:05:04;;;;;;;30.38;5.72;;;7.30;99.90;;;;;;5030027;28;20053;-75
2022/01/30 12:07:40;;;;;;;33.95;6.20;;;7.30;99.90;;;;;;5039693;28;20052;-76
2022/01/30 12:10:15;;;;;;;36.58;7.20;;;7.30;99.90;;;;;;5034939;28;20059;-77
2022/01/30 12:12:48;;;;;;;22.88;5.55;;;7.30;99.90;;;;;;5036133;28;20037;-77
2022/01/30 12:15:40;;;;;;;31.63;6.45;;;7.50;99.90;;;;;;5044232;28;20033;-77
2022/01/30 12:18:10;;;;;;;34.70;6.25;;;7.50;99.90;;;;;;5042065;28;20085;-76
2022/01/30 12:21:08;;;;;;;39.90;5.82;;;7.50;99.90;;;;;;5040340;28;20033;-77
2022/01/30 12:23:36;;;;;;;36.50;5.75;;;7.50;99.90;;;;;;5042899;28;20049;-77
2022/01/30 12:26:05;;;;;;;27.35;5.68;;;7.50;99.90;;;;;;5041873;28;20779;-77
2022/01/30 12:28:45;;;;;;;29.45;6.63;;;7.50;99.90;;;;;;5059905;28;20413;-77
2022/01/30 12:31:30;;;;;;;35.95;6.20;;;7.50;99.90;;;;;;5062285;28;20037;-76
2022/01/30 12:34:03;;;;;;;41.15;6.78;;;7.50;99.90;;;;;;5036703;28;20127;-76
2022/01/30 12:36:33;;;;;;;28.33;5.22;;;7.60;99.90;;;;;;5058144;28;20044;-75
2022/01/30 12:39:22;;;;;;;34.47;6.68;;;7.70;99.90;;;;;;5041224;28;20047;-77
2022/01/30 12:41:49;;;;;;;34.53;5.97;;;7.60;99.90;;;;;;5041410;28;20047;-77
2022/01/30 12:44:19;;;;;;;32.67;6.50;;;7.60;99.90;;;;;;5045760;28;20986;-75
2022/01/30 12:46:51;;;;;;;32.50;5.95;;;7.50;99.90;;;;;;5048693;28;20053;-76
2022/01/30 12:49:25;;;;;;;35.85;7.05;;;7.30;99.90;;;;;;5039281;28;20048;-76
2022/01/30 12:52:03;;;;;;;29.75;5.07;;;7.30;99.90;;;;;;5038750;28;20170;-75
2022/01/30 12:54:39;;;;;;;24.35;4.93;;;7.20;99.90;;;;;;5046433;28;20059;-75
2022/01/30 12:57:06;;;;;;;29.27;5.68;;;7.10;99.90;;;;;;5065058;28;20056;-77
2022/01/30 12:59:32;;;;;;;32.67;5.82;;;7.10;99.90;;;;;;5065141;28;20041;-77
2022/01/30 13:02:10;;;;;;;34.40;4.78;;;7.00;99.90;;;;;;5036162;28;20032;-76
2022/01/30 13:04:38;;;;;;;28.42;5.72;;;6.90;99.90;;;;;;5036952;28;20084;-76
2022/01/30 13:07:04;;;;;;;28.02;5.00;;;6.90;99.90;;;;;;5044465;28;20124;-77
2022/01/30 13:09:31;;;;;;;31.30;5.97;;;6.90;99.90;;;;;;5043437;28;20120;-77
2022/01/30 13:12:00;;;;;;;26.75;5.18;;;7.00;99.90;;;;;;5042642;28;20037;-78
2022/01/30 13:14:34;;;;;;;26.42;5.10;;;7.00;99.90;;;;;;5046596;28;20084;-80
2022/01/30 13:17:00;;;;;;;26.63;5.55;;;7.10;99.90;;;;;;5043293;28;20045;-79
2022/01/30 13:19:37;;;;;;;29.05;5.45;;;7.10;99.90;;;;;;5039694;28;20097;-75
2022/01/30 13:22:06;;;;;;;26.58;4.82;;;7.20;99.90;;;;;;5063791;28;20092;-78
2022/01/30 13:24:32;;;;;;;29.45;4.53;;;7.20;99.90;;;;;;5038967;28;20083;-76
2022/01/30 13:27:01;;;;;;;26.13;4.43;;;7.20;99.90;;;;;;5043301;28;20045;-77
2022/01/30 13:29:30;;;;;;;25.02;4.70;;;7.20;99.90;;;;;;5039370;28;20044;-75
2022/01/30 13:31:57;;;;;;;26.63;4.63;;;7.10;99.90;;;;;;5035481;28;20090;-75
2022/01/30 13:34:32;;;;;;;33.17;5.05;;;7.00;99.90;;;;;;5035776;28;20095;-75
2022/01/30 13:37:16;;;;;;;34.88;5.07;;;6.90;99.90;;;;;;5040847;28;20507;-75
2022/01/30 13:48:10;;;;;;;24.75;4.07;;;6.70;99.90;;;;;;4997837;28;20040;-75
2022/01/30 13:50:36;;;;;;;27.52;4.97;;;6.70;99.90;;;;;;5035824;28;20056;-75
2022/01/30 13:53:12;;;;;;;25.13;4.22;;;6.70;99.90;;;;;;5044844;28;20419;-75
2022/01/30 13:55:58;;;;;;;19.80;4.15;;;6.70;99.90;;;;;;5044485;28;20548;-75